Time;durP1;ratioP1;P1;durP2;ratioP2;P2;SDS_P1;SDS_P2;PMS_P1;PMS_P2;Temp;Humidity;BMP_temperature;BMP_pressure;BME280_temperature;BME280_humidity;BME280_pressure;Samples;Min_cycle;Max_cycle;Signal;HPM_P1;HPM_P2
2023/05/23 00:01:23;;;;;;;29.83;14.57;;;14.20;99.90;;;;;;5116472;28;20063;-71
2023/05/23 00:03:49;;;;;;;32.83;14.80;;;14.10;99.90;;;;;;5116994;28;20098;-72
2023/05/23 00:06:20;;;;;;;30.45;13.13;;;14.10;99.90;;;;;;5116624;28;20481;-72
2023/05/23 00:08:45;;;;;;;36.60;16.52;;;14.10;99.90;;;;;;5098413;28;20044;-74
2023/05/23 00:11:12;;;;;;;35.65;15.02;;;14.00;99.90;;;;;;5098369;28;20170;-73
2023/05/23 00:13:38;;;;;;;30.27;15.63;;;14.00;99.90;;;;;;5117195;28;20120;-73
2023/05/23 00:16:08;;;;;;;32.00;14.45;;;13.90;99.90;;;;;;5099317;28;20430;-72
2023/05/23 00:18:35;;;;;;;27.38;13.13;;;14.00;99.90;;;;;;5098136;28;20083;-71
2023/05/23 00:21:01;;;;;;;29.98;15.02;;;13.90;99.90;;;;;;5116371;28;20093;-72
2023/05/23 00:23:28;;;;;;;29.23;13.23;;;13.90;99.90;;;;;;5116210;28;20079;-76
2023/05/23 00:25:54;;;;;;;27.23;12.73;;;13.80;99.90;;;;;;5116239;28;20051;-70
2023/05/23 00:28:21;;;;;;;26.23;12.23;;;13.70;99.90;;;;;;5098321;28;20492;-70
2023/05/23 00:30:47;;;;;;;28.88;13.98;;;13.70;99.90;;;;;;5097982;28;20044;-72
2023/05/23 00:33:15;;;;;;;32.38;15.18;;;13.60;99.90;;;;;;5098460;28;20047;-70
2023/05/23 00:35:41;;;;;;;27.50;12.07;;;13.60;99.90;;;;;;5098043;28;20100;-70
2023/05/23 00:38:07;;;;;;;31.25;13.93;;;13.60;99.90;;;;;;5116625;28;20048;-69
2023/05/23 00:40:33;;;;;;;28.88;13.05;;;13.60;99.90;;;;;;5097743;28;20181;-71
2023/05/23 00:42:59;;;;;;;26.50;12.75;;;13.50;99.90;;;;;;5116123;28;20061;-70
2023/05/23 00:45:26;;;;;;;24.27;12.57;;;13.50;99.90;;;;;;5116033;28;20040;-71
2023/05/23 00:47:52;;;;;;;31.83;13.90;;;13.50;99.90;;;;;;5115898;28;20047;-69
2023/05/23 00:50:18;;;;;;;41.08;16.27;;;13.50;99.90;;;;;;5097822;28;20278;-71
2023/05/23 00:52:46;;;;;;;36.50;14.85;;;13.40;99.90;;;;;;5115931;28;20051;-70
2023/05/23 00:55:13;;;;;;;37.95;15.98;;;13.40;99.90;;;;;;5097671;28;20058;-69
2023/05/23 00:57:43;;;;;;;41.47;17.67;;;13.40;99.90;;;;;;5097382;28;20058;-68
2023/05/23 01:00:10;;;;;;;40.35;15.55;;;13.30;99.90;;;;;;5115115;28;20600;-68
2023/05/23 01:02:42;;;;;;;32.60;14.63;;;13.30;99.90;;;;;;5115656;28;20044;-68
2023/05/23 01:05:13;;;;;;;36.53;15.27;;;13.30;99.90;;;;;;5116452;28;20419;-70
2023/05/23 01:07:45;;;;;;;40.75;16.70;;;13.30;99.90;;;;;;5115509;28;20108;-69
2023/05/23 01:10:13;;;;;;;36.95;14.35;;;13.20;99.90;;;;;;5063639;28;20079;-67
2023/05/23 01:12:53;;;;;;;41.67;16.48;;;13.20;99.90;;;;;;5098093;28;20423;-69
2023/05/23 01:15:21;;;;;;;32.70;13.68;;;13.20;99.90;;;;;;5097569;28;20413;-67
2023/05/23 01:18:13;;;;;;;28.10;12.13;;;13.20;99.90;;;;;;5097080;28;20097;-68
2023/05/23 01:20:51;;;;;;;31.85;13.50;;;13.20;99.90;;;;;;5097882;28;20082;-69
2023/05/23 01:23:23;;;;;;;29.27;13.05;;;13.20;99.90;;;;;;5115016;28;20035;-68
2023/05/23 01:26:28;;;;;;;39.08;12.88;;;13.20;99.90;;;;;;5115042;28;20062;-68
2023/05/23 01:29:28;;;;;;;29.03;13.13;;;13.10;99.90;;;;;;5097876;28;20079;-70
2023/05/23 01:31:56;;;;;;;25.58;11.60;;;13.00;99.90;;;;;;5094511;28;20058;-67
2023/05/23 01:34:22;;;;;;;24.45;10.52;;;13.10;99.90;;;;;;5096722;28;20083;-67
2023/05/23 01:36:57;;;;;;;25.10;12.93;;;13.10;99.90;;;;;;5096630;28;20098;-69
2023/05/23 01:39:23;;;;;;;27.35;12.63;;;13.00;99.90;;;;;;5096921;28;20130;-68
2023/05/23 01:41:50;;;;;;;22.73;11.43;;;13.00;99.90;;;;;;5114318;28;20040;-68
2023/05/23 01:44:16;;;;;;;;;;;13.00;99.90;;;;;;5115430;28;20277;-68
2023/05/23 01:46:43;;;;;;;23.13;11.80;;;13.00;99.90;;;;;;5114484;28;19930;-68
2023/05/23 01:49:12;;;;;;;21.38;10.70;;;13.00;99.90;;;;;;5096536;28;20397;-67
2023/05/23 01:51:39;;;;;;;25.42;11.60;;;13.00;99.90;;;;;;5114576;28;20051;-69
2023/05/23 01:54:05;;;;;;;;;;;13.00;99.90;;;;;;5114283;28;20067;-67
2023/05/23 01:56:31;;;;;;;24.47;10.77;;;12.90;99.90;;;;;;5097403;28;19919;-67
2023/05/23 01:58:57;;;;;;;21.90;11.27;;;12.90;99.90;;;;;;5115195;28;20055;-69
2023/05/23 02:01:22;;;;;;;27.40;12.82;;;13.00;99.90;;;;;;5114277;28;20485;-67
2023/05/23 02:03:48;;;;;;;26.30;12.00;;;12.90;99.90;;;;;;5115125;28;20048;-67
2023/05/23 02:06:14;;;;;;;26.92;13.30;;;12.90;99.90;;;;;;5114379;28;20086;-67
2023/05/23 02:08:40;;;;;;;27.67;11.20;;;12.90;99.90;;;;;;5096978;28;20036;-66
2023/05/23 02:11:07;;;;;;;29.88;13.98;;;12.90;99.90;;;;;;5114121;28;20109;-66
2023/05/23 02:13:33;;;;;;;26.25;12.32;;;12.90;99.90;;;;;;5114467;28;20052;-67
2023/05/23 02:15:59;;;;;;;35.43;13.53;;;12.90;99.90;;;;;;5114755;28;20151;-68
2023/05/23 02:18:28;;;;;;;26.45;11.55;;;12.90;99.90;;;;;;5096041;28;20036;-68
2023/05/23 02:20:55;;;;;;;30.55;13.10;;;12.90;99.90;;;;;;5114125;28;20047;-68
2023/05/23 02:23:21;;;;;;;27.55;12.73;;;12.80;99.90;;;;;;5114008;28;20370;-68
2023/05/23 02:25:47;;;;;;;32.17;12.35;;;12.70;99.90;;;;;;5114092;28;20048;-81
2023/05/23 02:28:13;;;;;;;31.20;12.52;;;12.70;99.90;;;;;;5114140;28;20054;-69
2023/05/23 02:30:39;;;;;;;26.25;11.40;;;12.70;99.90;;;;;;5096937;28;20048;-68
2023/05/23 02:33:06;;;;;;;27.90;11.00;;;12.70;99.90;;;;;;5096051;28;20160;-68
2023/05/23 02:35:32;;;;;;;28.40;11.70;;;12.70;99.90;;;;;;5114458;28;20094;-68
2023/05/23 02:37:59;;;;;;;23.38;9.75;;;12.70;99.90;;;;;;5096754;28;20198;-68
2023/05/23 02:40:24;;;;;;;24.23;10.50;;;12.70;99.90;;;;;;5114007;28;20047;-67
2023/05/23 02:42:50;;;;;;;28.55;11.70;;;12.70;99.90;;;;;;5114103;28;20128;-70
2023/05/23 02:45:17;;;;;;;26.27;10.80;;;12.70;99.90;;;;;;5079852;28;20039;-68
2023/05/23 02:47:42;;;;;;;30.23;10.98;;;12.70;99.90;;;;;;5113764;28;20051;-69
2023/05/23 02:50:09;;;;;;;22.02;9.23;;;12.60;99.90;;;;;;5113627;28;20044;-69
2023/05/23 02:52:34;;;;;;;26.33;10.20;;;12.60;99.90;;;;;;5095660;28;20097;-69
2023/05/23 02:55:00;;;;;;;29.80;11.60;;;12.60;99.90;;;;;;5078704;28;20285;-67
2023/05/23 02:57:26;;;;;;;25.67;10.07;;;12.50;99.90;;;;;;5095470;28;20122;-69
2023/05/23 02:59:52;;;;;;;24.75;10.85;;;12.50;99.90;;;;;;5079502;28;20052;-71
2023/05/23 03:02:18;;;;;;;37.85;11.98;;;12.50;99.90;;;;;;5096465;28;20377;-68
2023/05/23 03:04:43;;;;;;;30.33;10.70;;;12.40;99.90;;;;;;5096772;28;20044;-68
2023/05/23 03:07:11;;;;;;;32.53;12.32;;;12.40;99.90;;;;;;5082699;28;20082;-70
2023/05/23 03:09:37;;;;;;;30.98;10.50;;;12.40;99.90;;;;;;5117716;28;20051;-68
2023/05/23 03:12:03;;;;;;;27.35;10.57;;;12.40;99.90;;;;;;5066608;28;20393;-68
2023/05/23 03:14:29;;;;;;;32.83;13.80;;;12.30;99.90;;;;;;5099641;28;20043;-68
2023/05/23 03:16:55;;;;;;;31.10;10.88;;;12.30;99.90;;;;;;5099471;28;20508;-78
2023/05/23 03:19:21;;;;;;;31.38;12.63;;;12.30;99.90;;;;;;5117607;28;20039;-68
2023/05/23 03:21:49;;;;;;;38.67;12.98;;;12.30;99.90;;;;;;5099820;28;20457;-68
2023/05/23 03:24:15;;;;;;;23.98;8.98;;;12.20;99.90;;;;;;5117169;28;20083;-68
2023/05/23 03:26:41;;;;;;;27.17;11.32;;;12.20;99.90;;;;;;5117414;28;20488;-68
2023/05/23 03:29:06;;;;;;;27.85;9.65;;;12.10;99.90;;;;;;5099193;28;20050;-69
2023/05/23 03:31:32;;;;;;;28.77;11.70;;;12.10;99.90;;;;;;5099246;28;20043;-69
2023/05/23 03:33:58;;;;;;;24.30;9.10;;;12.00;99.90;;;;;;5099074;28;20167;-77
2023/05/23 03:36:27;;;;;;;22.40;7.38;;;12.10;99.90;;;;;;5117229;28;20052;-66
2023/05/23 03:38:53;;;;;;;26.98;9.20;;;12.10;99.90;;;;;;5082711;28;20433;-67
2023/05/23 03:41:19;;;;;;;24.27;8.38;;;12.10;99.90;;;;;;5116795;28;20490;-68
2023/05/23 03:43:44;;;;;;;31.92;9.73;;;12.00;99.90;;;;;;5099591;28;20052;-68
2023/05/23 03:46:10;;;;;;;27.38;9.13;;;12.10;99.90;;;;;;5082476;28;20457;-70
2023/05/23 03:48:36;;;;;;;26.23;7.75;;;12.10;99.90;;;;;;5098456;28;20167;-67
2023/05/23 03:51:02;;;;;;;26.67;7.88;;;12.10;99.90;;;;;;5099024;28;20091;-68
2023/05/23 03:53:28;;;;;;;30.55;9.70;;;12.00;99.90;;;;;;5098484;28;20047;-69
2023/05/23 03:55:53;;;;;;;31.10;9.88;;;12.10;99.90;;;;;;5098576;28;20043;-69
2023/05/23 03:58:19;;;;;;;26.40;7.88;;;12.00;99.90;;;;;;5099117;28;20092;-67
2023/05/23 04:00:46;;;;;;;26.55;8.07;;;12.00;99.90;;;;;;5098538;28;20052;-68
2023/05/23 04:03:14;;;;;;;24.97;8.10;;;12.00;99.90;;;;;;5117416;28;20482;-69
2023/05/23 04:05:40;;;;;;;20.73;6.90;;;12.00;99.90;;;;;;5099087;28;20050;-68
2023/05/23 04:08:07;;;;;;;32.10;9.20;;;12.00;99.90;;;;;;5116553;28;20047;-69
2023/05/23 04:10:32;;;;;;;24.60;8.10;;;11.90;99.90;;;;;;5116667;28;20126;-68
2023/05/23 04:12:58;;;;;;;31.65;8.93;;;11.90;99.90;;;;;;5098350;28;20526;-68
2023/05/23 04:15:24;;;;;;;32.28;8.70;;;11.90;99.90;;;;;;5116941;28;20091;-69
2023/05/23 04:17:50;;;;;;;25.83;7.33;;;11.90;99.90;;;;;;5097816;28;20395;-68
2023/05/23 04:20:16;;;;;;;19.08;6.55;;;12.00;99.90;;;;;;5082290;28;20054;-68
2023/05/23 04:22:42;;;;;;;29.95;6.95;;;12.00;99.90;;;;;;5098191;28;20050;-67
2023/05/23 04:25:08;;;;;;;20.25;6.53;;;12.10;99.90;;;;;;5098224;28;20039;-69
2023/05/23 04:27:34;;;;;;;19.53;5.93;;;12.10;99.90;;;;;;5116271;28;20040;-69
2023/05/23 04:30:00;;;;;;;22.55;8.27;;;12.10;99.90;;;;;;5098511;28;20316;-70
2023/05/23 04:32:26;;;;;;;25.10;6.83;;;12.20;99.90;;;;;;5097977;28;20039;-69
2023/05/23 04:34:52;;;;;;;18.40;5.65;;;12.20;99.90;;;;;;5098339;28;20055;-68
2023/05/23 04:37:21;;;;;;;21.85;6.65;;;12.20;99.90;;;;;;5097832;28;20079;-68
2023/05/23 04:39:47;;;;;;;15.75;4.38;;;12.20;99.90;;;;;;5098012;28;20472;-67
2023/05/23 04:42:13;;;;;;;17.98;5.95;;;12.20;99.90;;;;;;5097760;28;20484;-68
2023/05/23 04:44:38;;;;;;;18.48;5.82;;;12.10;99.90;;;;;;5097899;28;20058;-71
2023/05/23 04:47:07;;;;;;;16.17;4.55;;;12.10;99.90;;;;;;5081017;28;20043;-69
2023/05/23 04:49:36;;;;;;;12.70;3.55;;;12.10;99.90;;;;;;5098024;28;20052;-70
2023/05/23 04:52:02;;;;;;;17.38;4.28;;;12.10;99.90;;;;;;5097831;28;20442;-68
2023/05/23 04:54:27;;;;;;;17.27;4.80;;;12.20;99.90;;;;;;5115654;28;20135;-69
2023/05/23 04:56:53;;;;;;;20.25;5.80;;;12.20;99.90;;;;;;5097689;28;20044;-68
2023/05/23 04:59:19;;;;;;;14.93;5.82;;;12.00;99.90;;;;;;5097730;28;20499;-68
2023/05/23 05:01:44;;;;;;;23.63;5.38;;;11.90;99.90;;;;;;5116186;28;20058;-69
2023/05/23 05:04:10;;;;;;;13.65;5.03;;;11.90;99.90;;;;;;5115201;28;20492;-68
2023/05/23 05:06:37;;;;;;;12.00;3.95;;;11.90;99.90;;;;;;5097862;28;20130;-68
2023/05/23 05:09:02;;;;;;;14.00;5.03;;;11.80;99.90;;;;;;5115408;28;20043;-68
2023/05/23 05:11:28;;;;;;;14.15;4.85;;;11.80;99.90;;;;;;5097052;28;20108;-69
2023/05/23 05:13:54;;;;;;;13.15;5.07;;;11.70;99.90;;;;;;5115330;28;20431;-69
2023/05/23 05:16:20;;;;;;;17.33;5.38;;;11.70;99.90;;;;;;5115216;28;20041;-69
2023/05/23 05:18:46;;;;;;;12.77;4.05;;;11.70;99.90;;;;;;5115470;28;20401;-68
2023/05/23 05:21:11;;;;;;;15.85;5.72;;;11.70;99.90;;;;;;5115034;28;20039;-69
2023/05/23 05:23:37;;;;;;;13.70;4.85;;;11.70;99.90;;;;;;5063416;28;20039;-69
2023/05/23 05:26:04;;;;;;;16.40;6.00;;;11.80;99.90;;;;;;5096926;28;20048;-69
2023/05/23 05:28:29;;;;;;;17.70;5.65;;;11.80;99.90;;;;;;5095804;28;20044;-68
2023/05/23 05:30:55;;;;;;;21.13;5.65;;;11.70;99.90;;;;;;5115165;28;20450;-68
2023/05/23 05:33:24;;;;;;;18.58;5.93;;;11.60;99.90;;;;;;5114879;28;20062;-68
2023/05/23 05:35:50;;;;;;;16.13;4.05;;;11.60;99.90;;;;;;5079994;28;20048;-68
2023/05/23 05:38:16;;;;;;;21.55;6.38;;;11.50;99.90;;;;;;5114791;28;20417;-69
2023/05/23 05:40:42;;;;;;;19.15;5.15;;;11.60;99.90;;;;;;5113497;28;20424;-69
2023/05/23 05:43:09;;;;;;;19.95;6.38;;;11.70;99.90;;;;;;5079691;28;20044;-70
2023/05/23 05:45:35;;;;;;;14.90;4.05;;;11.80;99.90;;;;;;5114684;28;20051;-68
2023/05/23 05:48:01;;;;;;;11.98;4.32;;;11.80;99.90;;;;;;5097404;28;20044;-69
2023/05/23 05:50:26;;;;;;;17.75;5.43;;;11.80;99.90;;;;;;5096399;28;20040;-69
2023/05/23 05:52:52;;;;;;;18.75;5.43;;;11.70;99.90;;;;;;5096585;28;20130;-68
2023/05/23 05:55:18;;;;;;;21.15;5.38;;;11.70;99.90;;;;;;5079450;28;20039;-69
2023/05/23 05:57:43;;;;;;;20.05;5.70;;;11.70;99.90;;;;;;5062977;28;20056;-69
2023/05/23 06:00:14;;;;;;;19.90;4.50;;;11.70;99.90;;;;;;5096102;28;20115;-69
2023/05/23 06:02:42;;;;;;;14.02;4.75;;;11.70;99.90;;;;;;5114070;28;20477;-69
2023/05/23 06:05:15;;;;;;;17.80;5.10;;;11.60;99.90;;;;;;5114553;28;20373;-69
2023/05/23 06:07:44;;;;;;;16.40;4.50;;;11.60;99.90;;;;;;5097332;28;20051;-69
2023/05/23 06:10:12;;;;;;;13.63;4.05;;;11.70;99.90;;;;;;5113965;28;20035;-69
2023/05/23 06:12:38;;;;;;;13.68;4.22;;;11.60;99.90;;;;;;5096241;28;20533;-69
2023/05/23 06:15:08;;;;;;;14.48;4.57;;;11.50;99.90;;;;;;5114221;28;20122;-69
2023/05/23 06:17:34;;;;;;;10.88;3.40;;;11.50;99.90;;;;;;5095934;28;20112;-69
2023/05/23 06:20:00;;;;;;;14.88;4.57;;;11.50;99.90;;;;;;5079314;28;20086;-69
2023/05/23 06:22:25;;;;;;;13.80;4.05;;;11.50;99.90;;;;;;5113917;28;20418;-76
2023/05/23 06:24:51;;;;;;;13.98;3.65;;;11.50;99.90;;;;;;5079312;28;20100;-69
2023/05/23 06:27:17;;;;;;;14.35;4.03;;;11.50;99.90;;;;;;5096006;28;20054;-69
2023/05/23 06:29:43;;;;;;;19.08;5.25;;;11.50;99.90;;;;;;5112747;28;20177;-69
2023/05/23 06:32:08;;;;;;;16.25;3.92;;;11.50;99.90;;;;;;5114108;28;20516;-69
2023/05/23 06:34:34;;;;;;;18.75;4.68;;;11.50;99.90;;;;;;5096248;28;20040;-70
2023/05/23 06:37:01;;;;;;;17.58;4.32;;;11.50;99.90;;;;;;5095804;28;20165;-70
2023/05/23 06:39:26;;;;;;;19.30;4.25;;;11.50;99.90;;;;;;5113808;28;20109;-69
2023/05/23 06:41:53;;;;;;;18.75;3.90;;;11.60;99.90;;;;;;5078909;28;20036;-69
2023/05/23 06:44:19;;;;;;;9.65;2.97;;;11.70;99.90;;;;;;5095831;28;20492;-69
2023/05/23 06:46:45;;;;;;;13.57;3.30;;;11.50;99.90;;;;;;5096114;28;20040;-68
2023/05/23 06:49:11;;;;;;;13.15;3.50;;;11.60;99.90;;;;;;5096405;28;20465;-68
2023/05/23 06:51:37;;;;;;;13.27;4.22;;;11.70;99.90;;;;;;5113936;28;20126;-71
2023/05/23 06:54:03;;;;;;;14.52;4.20;;;11.70;99.90;;;;;;5095692;28;20040;-68
2023/05/23 06:56:28;;;;;;;15.55;3.63;;;11.60;99.90;;;;;;5113757;28;20473;-70
2023/05/23 06:58:54;;;;;;;15.63;3.67;;;11.60;99.90;;;;;;5095429;28;20435;-69
2023/05/23 07:01:20;;;;;;;13.90;3.65;;;11.60;99.90;;;;;;5114679;28;20058;-70
2023/05/23 07:03:46;;;;;;;13.25;2.53;;;11.50;99.90;;;;;;5113379;28;20050;-70
2023/05/23 07:06:11;;;;;;;11.65;3.13;;;11.60;99.90;;;;;;5078698;28;20055;-69
2023/05/23 07:08:37;;;;;;;13.15;3.63;;;11.70;99.90;;;;;;5113582;28;20050;-69
2023/05/23 07:11:05;;;;;;;14.00;4.13;;;11.70;99.90;;;;;;5113627;28;20106;-68
2023/05/23 07:13:31;;;;;;;13.10;3.08;;;11.80;99.90;;;;;;5095563;28;20043;-69
2023/05/23 07:15:57;;;;;;;17.13;3.55;;;11.80;99.90;;;;;;5096304;28;20055;-69
2023/05/23 07:18:23;;;;;;;12.80;2.80;;;11.70;99.90;;;;;;5095397;28;20040;-69
2023/05/23 07:20:49;;;;;;;17.13;3.07;;;11.70;99.90;;;;;;5113890;28;20401;-68
2023/05/23 07:23:15;;;;;;;13.82;2.80;;;11.80;99.90;;;;;;5078582;28;20043;-70
2023/05/23 07:25:41;;;;;;;12.00;2.73;;;11.80;99.90;;;;;;5095335;28;20043;-69
2023/05/23 07:28:08;;;;;;;15.50;3.42;;;11.80;99.90;;;;;;5113392;28;20047;-68
2023/05/23 07:30:33;;;;;;;9.55;1.90;;;11.70;99.90;;;;;;5079409;28;20052;-69
2023/05/23 07:32:59;;;;;;;16.95;2.75;;;11.80;99.90;;;;;;5113272;28;20039;-68
2023/05/23 07:35:25;;;;;;;13.20;2.47;;;11.80;99.90;;;;;;5113938;28;20052;-69
2023/05/23 07:37:54;;;;;;;15.63;2.55;;;11.90;99.90;;;;;;5078788;28;20123;-71
2023/05/23 07:40:21;;;;;;;19.35;3.10;;;12.00;99.90;;;;;;5078418;28;20055;-70
2023/05/23 07:42:47;;;;;;;15.00;2.70;;;12.10;99.90;;;;;;5113626;28;20051;-69
2023/05/23 07:45:13;;;;;;;14.38;3.67;;;12.20;99.90;;;;;;5112970;28;20370;-70
2023/05/23 07:47:39;;;;;;;13.45;2.63;;;12.00;99.90;;;;;;5113257;28;20051;-78
2023/05/23 07:50:06;;;;;;;15.88;3.30;;;12.20;99.90;;;;;;5095223;28;20481;-68
2023/05/23 07:52:32;;;;;;;14.10;2.53;;;12.40;99.90;;;;;;5115406;28;20071;-70
2023/05/23 07:54:58;;;;;;;10.27;2.53;;;12.40;99.90;;;;;;5098958;28;20175;-69
2023/05/23 07:57:24;;;;;;;18.92;3.15;;;12.40;99.90;;;;;;5066136;28;20039;-69
2023/05/23 07:59:51;;;;;;;13.45;2.58;;;12.50;99.90;;;;;;5098391;28;20054;-70
2023/05/23 08:02:17;;;;;;;19.67;3.23;;;12.70;99.90;;;;;;5117230;28;20048;-69
2023/05/23 08:04:44;;;;;;;12.50;2.20;;;12.30;99.90;;;;;;5098467;28;20336;-72
2023/05/23 08:07:10;;;;;;;14.43;2.63;;;12.50;99.90;;;;;;5098670;28;20047;-68
2023/05/23 08:09:37;;;;;;;15.43;2.25;;;12.50;99.90;;;;;;5116578;28;20050;-71
2023/05/23 08:12:03;;;;;;;17.40;2.72;;;12.50;99.90;;;;;;5081485;28;20079;-70
2023/05/23 08:14:29;;;;;;;17.17;2.83;;;12.40;99.90;;;;;;5081468;28;20062;-70
2023/05/23 08:16:54;;;;;;;11.68;1.77;;;12.20;99.90;;;;;;5098257;28;20043;-69
2023/05/23 08:19:20;;;;;;;12.00;1.80;;;12.20;99.90;;;;;;5116412;28;20052;-71
2023/05/23 08:21:46;;;;;;;15.10;1.60;;;12.40;99.90;;;;;;5098479;28;20040;-69
2023/05/23 08:24:12;;;;;;;12.85;2.20;;;12.80;99.90;;;;;;5098408;28;20059;-69
2023/05/23 08:26:38;;;;;;;11.75;1.92;;;12.80;99.90;;;;;;5098592;28;20043;-69
2023/05/23 08:29:04;;;;;;;13.25;1.67;;;13.10;99.90;;;;;;5115798;28;20489;-69
2023/05/23 08:31:31;;;;;;;13.18;1.75;;;13.20;99.90;;;;;;5098071;28;20096;-70
2023/05/23 08:33:58;;;;;;;16.13;2.28;;;13.00;99.90;;;;;;5115744;28;20044;-70
2023/05/23 08:36:24;;;;;;;16.17;2.20;;;12.80;99.90;;;;;;5081638;28;20545;-71
2023/05/23 08:38:51;;;;;;;14.95;2.05;;;12.70;99.90;;;;;;5097880;28;20130;-70
2023/05/23 08:41:21;;;;;;;19.33;2.53;;;13.00;99.90;;;;;;5115947;28;20085;-70
2023/05/23 08:43:47;;;;;;;16.23;2.80;;;12.90;99.90;;;;;;5115816;28;20088;-68
2023/05/23 08:46:16;;;;;;;13.73;1.83;;;12.90;99.90;;;;;;5097972;28;20480;-69
2023/05/23 08:48:47;;;;;;;14.65;2.22;;;12.90;99.90;;;;;;5098222;28;20294;-69
2023/05/23 08:51:15;;;;;;;13.13;1.60;;;13.30;99.90;;;;;;5115379;28;20048;-69
2023/05/23 08:53:48;;;;;;;12.30;1.98;;;13.60;99.90;;;;;;5080384;28;20040;-69
2023/05/23 08:56:15;;;;;;;14.27;1.85;;;13.60;99.90;;;;;;5115492;28;20079;-69
2023/05/23 08:58:42;;;;;;;13.68;2.80;;;13.50;99.90;;;;;;5098004;28;20047;-69
2023/05/23 09:01:12;;;;;;;15.73;2.20;;;13.60;99.90;;;;;;5115516;28;20091;-68
2023/05/23 09:03:39;;;;;;;15.82;2.47;;;13.50;99.90;;;;;;5097420;28;20153;-70
2023/05/23 09:06:08;;;;;;;14.15;2.10;;;13.80;99.90;;;;;;5115463;28;20051;-70
2023/05/23 09:08:35;;;;;;;18.05;2.05;;;13.90;99.90;;;;;;5096948;28;20164;-69
2023/05/23 09:11:05;;;;;;;13.57;2.65;;;14.10;99.90;;;;;;5097845;28;20090;-69
2023/05/23 09:13:32;;;;;;;16.38;2.03;;;13.50;99.90;;;;;;5115316;28;20036;-71
2023/05/23 09:15:58;;;;;;;;;;;13.70;99.90;;;;;;5115650;28;20040;-69
2023/05/23 09:18:33;;;;;;;14.20;2.10;;;13.70;99.90;;;;;;5115294;28;19927;-69
2023/05/23 09:21:00;;;;;;;12.65;2.08;;;13.30;99.90;;;;;;5097747;28;20489;-70
2023/05/23 09:23:29;;;;;;;11.68;1.70;;;13.30;99.90;;;;;;5096899;28;20481;-70
2023/05/23 09:25:55;;;;;;;13.45;2.10;;;13.50;99.90;;;;;;5115611;28;20132;-78
2023/05/23 09:28:20;;;;;;;11.70;1.88;;;13.60;99.90;;;;;;5114983;28;20450;-69
2023/05/23 09:30:46;;;;;;;9.25;1.88;;;13.80;99.90;;;;;;5096698;28;20175;-70
2023/05/23 09:33:13;;;;;;;15.18;2.40;;;14.00;99.90;;;;;;5114883;28;20086;-70
2023/05/23 09:35:45;;;;;;;9.65;1.52;;;14.20;99.90;;;;;;5096852;28;20042;-69
2023/05/23 09:38:11;;;;;;;10.38;2.03;;;14.50;99.90;;;;;;5096881;28;20378;-70
2023/05/23 09:40:36;;;;;;;16.50;2.63;;;14.60;99.90;;;;;;5079969;28;20042;-69
2023/05/23 09:43:03;;;;;;;14.77;2.05;;;14.60;99.90;;;;;;5096420;28;20039;-69
2023/05/23 09:45:30;;;;;;;;;;;14.50;99.90;;;;;;5115236;28;20047;-68
2023/05/23 09:47:55;;;;;;;11.68;1.67;;;14.60;99.90;;;;;;5096623;28;19926;-69
2023/05/23 09:50:22;;;;;;;13.98;1.63;;;14.60;99.90;;;;;;5114594;28;20170;-69
2023/05/23 09:52:49;;;;;;;10.63;1.60;;;14.60;99.90;;;;;;5114940;28;20040;-68
2023/05/23 09:55:15;;;;;;;8.55;1.88;;;14.70;99.90;;;;;;5079313;28;20050;-68
2023/05/23 09:57:44;;;;;;;13.75;1.92;;;14.80;99.90;;;;;;5114574;28;20051;-70
2023/05/23 10:00:12;;;;;;;11.05;1.58;;;15.10;99.90;;;;;;5079180;28;20597;-70
2023/05/23 10:02:41;;;;;;;7.90;1.63;;;;;;;;;;5114690;28;20389;-70
2023/05/23 10:05:08;;;;;;;15.52;2.00;;;;;;;;;;5114456;28;20047;-70
2023/05/23 10:07:35;;;;;;;14.10;1.83;;;;;;;;;;5096300;28;20396;-68
2023/05/23 10:10:05;;;;;;;15.68;2.17;;;14.80;99.90;;;;;;5096250;28;20500;-69
2023/05/23 10:13:04;;;;;;;14.35;1.85;;;14.80;99.90;;;;;;5114319;28;20039;-69
2023/05/23 10:15:37;;;;;;;12.57;2.60;;;14.80;99.90;;;;;;5052955;28;20056;-69
2023/05/23 10:18:15;;;;;;;12.60;2.38;;;14.90;99.90;;;;;;5096671;28;20433;-70
2023/05/23 10:20:47;;;;;;;12.15;1.88;;;15.10;99.90;;;;;;5115105;28;20389;-69
2023/05/23 10:23:12;;;;;;;10.35;2.05;;;15.40;99.90;;;;;;5114051;28;20040;-70
2023/05/23 10:25:40;;;;;;;13.30;2.80;;;;;;;;;;5114052;28;20050;-69
2023/05/23 10:28:07;;;;;;;9.57;1.30;;;;;;;;;;5113849;28;20059;-70
2023/05/23 10:30:33;;;;;;;10.65;1.63;;;15.60;99.90;;;;;;5114280;28;20439;-70
2023/05/23 10:33:00;;;;;;;12.52;1.42;;;;;;;;;;5113892;28;20036;-68
2023/05/23 10:35:45;;;;;;;13.98;1.67;;;;;;;;;;5095714;28;20434;-70
2023/05/23 10:38:18;;;;;;;11.02;1.65;;;;;;;;;;5114067;28;20043;-69
2023/05/23 10:41:02;;;;;;;10.70;1.33;;;;;;;;;;5096495;28;20047;-69
2023/05/23 10:43:28;;;;;;;10.40;1.40;;;;;;;;;;5095794;28;20043;-69
2023/05/23 10:45:54;;;;;;;11.60;1.75;;;15.50;99.90;;;;;;5113921;28;20093;-70
2023/05/23 10:48:34;;;;;;;10.70;1.70;;;15.50;99.90;;;;;;5078968;28;20048;-69
2023/05/23 10:51:07;;;;;;;16.90;2.03;;;;;;;;;;5113760;28;20079;-69
2023/05/23 10:53:38;;;;;;;13.00;1.50;;;15.40;99.90;;;;;;5095687;28;20049;-71
2023/05/23 10:56:06;;;;;;;7.70;1.52;;;15.50;99.90;;;;;;5079538;28;20469;-72
2023/05/23 10:58:32;;;;;;;9.18;1.45;;;15.50;99.90;;;;;;5113526;28;20058;-70
2023/05/23 11:01:05;;;;;;;13.95;1.73;;;15.40;99.90;;;;;;5113391;28;20416;-70
2023/05/23 11:03:36;;;;;;;6.22;1.05;;;15.10;99.90;;;;;;5113556;28;20393;-69
2023/05/23 11:06:03;;;;;;;10.43;1.40;;;15.10;99.90;;;;;;5095542;28;20054;-70
2023/05/23 11:08:38;;;;;;;14.75;1.77;;;15.40;99.90;;;;;;5078752;28;20401;-71
2023/05/23 11:11:05;;;;;;;16.63;2.05;;;15.30;99.90;;;;;;5096118;28;20104;-69
2023/05/23 11:13:52;;;;;;;11.73;1.70;;;15.10;99.90;;;;;;5078557;28;20075;-70
2023/05/23 11:16:29;;;;;;;10.77;1.50;;;15.50;99.90;;;;;;5095360;28;20862;-70
2023/05/23 11:19:17;;;;;;;11.20;1.70;;;15.60;99.90;;;;;;5096334;28;20044;-70
2023/05/23 11:21:44;;;;;;;16.42;2.03;;;14.90;99.90;;;;;;5113326;28;20050;-69
2023/05/23 11:24:10;;;;;;;10.77;1.35;;;14.90;99.90;;;;;;5078577;28;20051;-72
2023/05/23 11:26:36;;;;;;;9.65;1.60;;;15.00;99.90;;;;;;5095989;28;20070;-72
2023/05/23 11:29:07;;;;;;;8.75;1.55;;;15.10;99.90;;;;;;5117379;28;20047;-69
2023/05/23 11:31:37;;;;;;;12.95;1.70;;;15.10;99.90;;;;;;5117358;28;20062;-74
2023/05/23 11:34:03;;;;;;;13.50;1.45;;;14.80;99.90;;;;;;5117423;28;20043;-72
2023/05/23 11:36:30;;;;;;;12.57;1.80;;;15.00;99.90;;;;;;5117635;28;20385;-72
2023/05/23 11:39:00;;;;;;;7.72;1.65;;;15.30;99.90;;;;;;5117458;28;20052;-69
2023/05/23 11:41:26;;;;;;;9.65;1.40;;;15.50;99.90;;;;;;5118112;28;20134;-69
2023/05/23 11:43:52;;;;;;;12.32;1.63;;;15.50;99.90;;;;;;5117179;28;20082;-71
2023/05/23 11:46:18;;;;;;;12.32;1.60;;;15.60;99.90;;;;;;5117348;28;20119;-71
2023/05/23 11:48:45;;;;;;;12.18;2.17;;;15.60;99.90;;;;;;5117924;28;20132;-72
2023/05/23 11:51:11;;;;;;;10.40;1.58;;;15.40;99.90;;;;;;5116993;28;20395;-70
2023/05/23 11:53:40;;;;;;;11.23;1.73;;;15.20;99.90;;;;;;5116592;28;20043;-71
2023/05/23 11:56:07;;;;;;;11.67;1.43;;;15.70;99.90;;;;;;5117204;28;20425;-71
2023/05/23 11:58:35;;;;;;;8.30;1.02;;;15.90;99.90;;;;;;5116697;28;20043;-71
2023/05/23 12:01:03;;;;;;;15.38;1.60;;;16.00;99.90;;;;;;5098550;28;20059;-71
2023/05/23 12:03:30;;;;;;;10.05;1.25;;;15.60;99.90;;;;;;5081834;28;20044;-71
2023/05/23 12:05:56;;;;;;;;;;;15.70;99.90;;;;;;5117281;28;20079;-70
2023/05/23 12:08:22;;;;;;;13.80;1.65;;;15.60;99.90;;;;;;5116611;28;19930;-71
2023/05/23 12:11:00;;;;;;;11.60;1.38;;;15.60;99.90;;;;;;5098995;28;20047;-70
2023/05/23 12:13:29;;;;;;;7.85;1.33;;;15.40;99.90;;;;;;5116529;28;20044;-70
2023/05/23 12:16:01;;;;;;;14.50;1.77;;;15.50;99.90;;;;;;5116968;28;20130;-70
2023/05/23 12:18:29;;;;;;;10.65;1.45;;;15.30;99.90;;;;;;5082342;28;20112;-69
2023/05/23 12:21:00;;;;;;;15.27;2.00;;;16.00;99.90;;;;;;5117211;28;20059;-71
2023/05/23 12:23:27;;;;;;;8.77;1.23;;;15.80;99.90;;;;;;5117409;28;20047;-71
2023/05/23 12:25:53;;;;;;;;;;;;;;;;;;5098581;28;20046;-70
2023/05/23 12:28:19;;;;;;;9.80;1.35;;;15.70;99.90;;;;;;5098156;28;19919;-71
2023/05/23 12:30:45;;;;;;;19.15;1.90;;;15.70;99.90;;;;;;5099007;28;20419;-71
2023/05/23 12:33:12;;;;;;;13.27;1.85;;;15.40;99.90;;;;;;5097858;28;20095;-71
2023/05/23 12:35:43;;;;;;;8.10;1.95;;;15.50;99.90;;;;;;5098544;28;20361;-69
2023/05/23 12:38:13;;;;;;;8.57;1.50;;;15.40;99.90;;;;;;5080324;28;20043;-70
2023/05/23 12:40:39;;;;;;;9.93;1.20;;;15.60;99.90;;;;;;5115904;28;20131;-70
2023/05/23 12:43:09;;;;;;;11.60;1.50;;;15.60;99.90;;;;;;5097817;28;20173;-69